createdAt,value
2018-04-01T09:39:50.158Z,9.00
2018-04-01T09:43:46.419Z,9.10
2018-04-01T09:46:13.871Z,9.30
2018-04-01T09:48:41.382Z,9.30
2018-04-01T09:51:08.936Z,9.20
2018-04-01T09:53:36.458Z,9.30
2018-04-01T09:56:03.906Z,9.50
2018-04-01T09:58:31.367Z,9.60
2018-04-01T10:01:01.248Z,9.40
2018-04-01T10:03:29.210Z,9.40
2018-04-01T10:05:57.167Z,9.70
2018-04-01T10:08:25.130Z,9.90
2018-04-01T10:10:53.118Z,9.90
2018-04-01T10:13:21.094Z,10.10
2018-04-01T10:15:49.045Z,10.30
2018-04-01T10:18:17.005Z,10.40
2018-04-01T10:20:44.979Z,10.30
2018-04-01T10:23:12.931Z,10.00
2018-04-01T10:25:40.918Z,10.10
2018-04-01T10:28:08.866Z,10.30
2018-04-01T10:30:36.835Z,10.60
2018-04-01T10:33:04.822Z,10.90
2018-04-01T10:35:32.774Z,11.00
2018-04-01T10:38:00.781Z,11.10
2018-04-01T10:40:28.734Z,11.00
2018-04-01T10:42:56.726Z,10.70
2018-04-01T10:45:24.702Z,11.00
2018-04-01T10:47:52.655Z,10.90
2018-04-01T10:50:20.606Z,11.10
2018-04-01T10:52:48.603Z,11.30
2018-04-01T10:55:16.067Z,11.10
2018-04-01T10:57:43.527Z,11.10
2018-04-01T11:00:11.022Z,11.00
2018-04-01T11:02:38.478Z,10.70
2018-04-01T11:05:05.966Z,11.00
2018-04-01T11:07:33.443Z,10.70
2018-04-01T11:10:00.907Z,10.60
2018-04-01T11:12:28.406Z,10.60
2018-04-01T11:14:55.871Z,10.40
2018-04-01T11:17:23.334Z,10.50
2018-04-01T11:19:50.817Z,10.70
2018-04-01T11:22:18.299Z,10.70
2018-04-01T11:24:45.796Z,11.10
2018-04-01T11:27:13.254Z,11.30
2018-04-01T11:29:40.722Z,11.50
2018-04-01T11:32:08.201Z,11.60
2018-04-01T11:34:35.664Z,12.10
2018-04-01T11:37:03.123Z,12.70
2018-04-01T11:39:30.625Z,12.50
2018-04-01T11:41:58.088Z,11.90
2018-04-01T11:44:25.550Z,11.60
2018-04-01T11:46:53.029Z,11.40
2018-04-01T11:49:20.511Z,11.60
2018-04-01T11:51:47.978Z,11.50
2018-04-01T11:54:15.512Z,11.50
2018-04-01T11:56:42.988Z,11.20
2018-04-01T11:59:10.450Z,11.10
2018-04-01T12:01:37.940Z,11.10
2018-04-01T12:04:05.391Z,11.30
2018-04-01T12:06:32.895Z,11.30
2018-04-01T12:09:00.369Z,11.40
2018-04-01T12:11:27.845Z,11.20
2018-04-01T12:13:55.337Z,11.20
2018-04-01T12:16:22.833Z,11.20
2018-04-01T12:18:50.290Z,11.20
2018-04-01T12:21:17.779Z,11.70
2018-04-01T12:23:45.394Z,11.90
2018-04-01T12:26:12.856Z,12.40
2018-04-01T12:28:40.319Z,12.60
2018-04-01T12:31:07.806Z,12.90
2018-04-01T12:33:35.255Z,12.90
2018-04-01T12:36:02.754Z,12.60
2018-04-01T12:38:30.231Z,12.50
2018-04-01T12:40:57.685Z,12.70
2018-04-01T12:43:25.154Z,12.50
2018-04-01T12:45:52.638Z,12.40
2018-04-01T12:48:20.094Z,12.40
2018-04-01T12:50:47.563Z,12.50
2018-04-01T12:53:15.059Z,12.30
2018-04-01T12:55:42.507Z,11.90
2018-04-01T12:58:10.007Z,11.80
2018-04-01T13:00:37.475Z,11.90
2018-04-01T13:03:04.927Z,12.20
2018-04-01T13:05:32.403Z,12.50
2018-04-01T13:07:59.874Z,12.30
2018-04-01T13:10:27.330Z,12.40
2018-04-01T13:12:54.795Z,12.60
2018-04-01T13:15:22.274Z,12.60
2018-04-01T13:17:49.759Z,12.30
2018-04-01T13:20:17.259Z,12.30
2018-04-01T13:22:44.711Z,12.20
2018-04-01T13:25:12.162Z,12.30
2018-04-01T13:27:39.658Z,12.40
2018-04-01T13:30:07.111Z,12.60
2018-04-01T13:32:34.566Z,12.60
2018-04-01T13:35:02.042Z,12.30
2018-04-01T13:37:29.540Z,12.30
2018-04-01T13:39:57.005Z,11.90
2018-04-01T13:42:24.459Z,11.80
2018-04-01T13:44:51.960Z,11.80
2018-04-01T13:47:19.418Z,11.70
2018-04-01T13:49:46.866Z,12.00
2018-04-01T13:52:14.343Z,12.00
2018-04-01T13:54:41.811Z,12.00
2018-04-01T13:57:09.310Z,11.70
2018-04-01T13:59:36.939Z,11.70
2018-04-01T14:02:04.394Z,11.60
2018-04-01T14:04:31.896Z,11.60
2018-04-01T14:06:59.355Z,11.50
2018-04-01T14:09:26.821Z,11.10
2018-04-01T14:11:54.303Z,11.40
2018-04-01T14:14:21.805Z,11.50
2018-04-01T14:16:49.279Z,11.30
2018-04-01T14:19:16.781Z,11.30
2018-04-01T14:21:44.276Z,11.50
2018-04-01T14:24:11.858Z,11.50
2018-04-01T14:26:39.335Z,11.20
2018-04-01T14:29:06.799Z,11.30
2018-04-01T14:31:34.292Z,11.40
2018-04-01T14:34:01.743Z,11.30
2018-04-01T14:36:29.231Z,11.10
2018-04-01T14:38:56.704Z,10.70
2018-04-01T14:41:24.166Z,10.60
2018-04-01T14:43:51.651Z,10.50
2018-04-01T14:46:19.143Z,10.80
2018-04-01T14:48:46.603Z,10.60
2018-04-01T14:51:14.062Z,10.70
2018-04-01T14:53:41.567Z,10.60
2018-04-01T14:56:09.079Z,10.60
2018-04-01T14:58:36.579Z,10.60
2018-04-01T15:01:04.041Z,10.60
2018-04-01T15:03:31.499Z,10.70
2018-04-01T15:05:58.983Z,10.90
2018-04-01T15:08:26.450Z,10.60
2018-04-01T15:10:53.958Z,10.40
2018-04-01T15:13:21.435Z,10.50
2018-04-01T15:15:49.072Z,10.40
2018-04-01T15:18:16.555Z,10.50
2018-04-01T15:20:44.057Z,10.40
2018-04-01T15:23:11.515Z,10.50
2018-04-01T15:25:38.976Z,10.50
2018-04-01T15:28:06.551Z,10.50
2018-04-01T15:30:34.011Z,10.30
2018-04-01T15:33:01.475Z,10.30
2018-04-01T15:35:28.988Z,10.30
2018-04-01T15:37:56.446Z,10.40
2018-04-01T15:40:23.911Z,10.40
2018-04-01T15:42:51.443Z,10.30
2018-04-01T15:45:18.951Z,10.40
2018-04-01T15:47:46.410Z,10.40
2018-04-01T15:50:13.891Z,10.30
2018-04-01T15:52:41.370Z,10.40
2018-04-01T15:55:08.843Z,10.30
2018-04-01T15:57:36.363Z,10.10
2018-04-01T16:00:03.847Z,10.10
2018-04-01T16:02:31.321Z,10.10
2018-04-01T16:04:58.812Z,10.10
2018-04-01T16:07:26.291Z,10.00
2018-04-01T16:09:53.880Z,9.90
2018-04-01T16:12:21.367Z,9.80
2018-04-01T16:14:48.823Z,9.70
2018-04-01T16:17:16.282Z,9.50
2018-04-01T16:19:43.786Z,9.30
2018-04-01T16:22:11.334Z,9.30
2018-04-01T16:24:38.795Z,9.40
2018-04-01T16:27:06.271Z,9.30
2018-04-01T16:29:33.782Z,9.20
2018-04-01T16:32:01.241Z,9.20
2018-04-01T16:34:28.696Z,9.20
2018-04-01T16:36:56.175Z,9.10
2018-04-01T16:39:23.632Z,9.00
2018-04-01T16:41:51.110Z,9.00
2018-04-01T16:44:18.869Z,9.00
2018-04-01T16:48:29.079Z,9.00
2018-04-01T16:50:56.560Z,8.70
2018-04-01T16:53:24.040Z,8.60
2018-04-01T16:55:51.499Z,8.40
2018-04-01T16:58:18.974Z,8.20
2018-04-01T17:00:46.423Z,8.00
2018-04-01T17:03:13.901Z,8.00
2018-04-01T17:05:41.363Z,7.80
2018-04-01T17:08:08.861Z,7.70
2018-04-01T17:10:36.356Z,7.70
2018-04-01T17:13:03.812Z,7.70
2018-04-01T17:15:31.264Z,7.60
2018-04-01T17:17:58.766Z,7.40
2018-04-01T17:20:26.220Z,7.30
2018-04-01T17:22:53.695Z,7.40
2018-04-01T17:25:21.191Z,7.50
2018-04-01T17:27:48.646Z,7.20
2018-04-01T17:30:16.110Z,7.30
2018-04-01T17:32:43.591Z,7.40
2018-04-01T17:35:11.058Z,7.30
2018-04-01T17:37:38.516Z,7.20
2018-04-01T17:40:05.985Z,7.20
2018-04-01T17:42:33.456Z,7.10
2018-04-01T17:45:00.948Z,7.20
2018-04-01T17:47:28.416Z,7.10
2018-04-01T17:49:55.878Z,7.20
2018-04-01T17:52:23.352Z,7.10
2018-04-01T17:54:50.839Z,6.90
2018-04-01T17:57:18.311Z,6.70
2018-04-01T17:59:45.771Z,6.70
2018-04-01T18:02:13.275Z,6.70
2018-04-01T18:04:40.726Z,6.50
2018-04-01T18:07:08.187Z,6.40
2018-04-01T18:09:35.688Z,6.40
2018-04-01T18:12:03.143Z,6.30
2018-04-01T18:14:30.597Z,6.20
2018-04-01T18:16:58.074Z,6.10
2018-04-01T18:19:25.577Z,5.90
2018-04-01T18:21:53.027Z,5.90
2018-04-01T18:24:20.522Z,5.80
2018-04-01T18:26:48.010Z,5.90
2018-04-01T18:29:15.467Z,5.70
2018-04-01T18:31:42.923Z,5.70
2018-04-01T18:34:10.406Z,5.70
2018-04-01T18:36:37.880Z,5.70
2018-04-01T18:39:05.340Z,5.90
2018-04-01T18:41:32.820Z,5.90
2018-04-01T18:44:00.314Z,5.60
2018-04-01T18:46:27.788Z,5.60
2018-04-01T18:48:55.235Z,5.40
2018-04-01T18:51:22.741Z,5.30
2018-04-01T18:53:50.199Z,5.30
2018-04-01T18:56:17.655Z,5.50
2018-04-01T18:58:45.168Z,5.50
2018-04-01T19:01:12.711Z,5.50
2018-04-01T19:03:40.140Z,5.50
2018-04-01T19:06:07.591Z,5.60
2018-04-01T19:08:35.082Z,5.60
2018-04-01T19:11:02.535Z,5.70
2018-04-01T19:13:29.982Z,5.50
2018-04-01T19:15:59.378Z,5.30
2018-04-01T19:18:27.362Z,5.30
2018-04-01T19:20:55.307Z,5.20
2018-04-01T19:23:23.247Z,5.30
2018-04-01T19:25:51.211Z,5.20
2018-04-01T19:28:19.155Z,5.20
2018-04-01T19:30:47.124Z,4.90
2018-04-01T19:33:15.072Z,5.20
2018-04-01T19:35:43.049Z,5.60
2018-04-01T19:38:11.007Z,5.30
2018-04-01T19:40:38.946Z,5.20
2018-04-01T19:43:06.916Z,5.20
2018-04-01T19:45:34.887Z,5.40
2018-04-01T19:48:02.829Z,5.30
2018-04-01T19:50:30.767Z,5.10
2018-04-01T19:52:58.768Z,5.30
2018-04-01T19:55:26.718Z,5.20
2018-04-01T19:57:54.658Z,5.10
2018-04-01T20:00:22.623Z,4.90
2018-04-01T20:02:50.564Z,4.80
2018-04-01T20:05:18.529Z,4.60
2018-04-01T20:07:46.511Z,4.70
2018-04-01T20:10:14.458Z,5.00
2018-04-01T20:12:42.405Z,5.10
2018-04-01T20:15:10.367Z,5.10
2018-04-01T20:17:38.311Z,5.40
2018-04-01T20:20:06.285Z,5.50
2018-04-01T20:22:34.223Z,5.40
2018-04-01T20:25:02.162Z,5.30
2018-04-01T20:27:30.139Z,5.30
2018-04-01T20:29:58.079Z,5.30
2018-04-01T20:32:26.019Z,5.30
2018-04-01T20:34:54.003Z,5.30
2018-04-01T20:37:21.939Z,5.50
2018-04-01T20:39:49.891Z,5.40
2018-04-01T20:42:17.873Z,5.80
2018-04-01T20:44:45.815Z,5.90
2018-04-01T20:47:13.767Z,5.70
2018-04-01T20:49:41.752Z,5.70
2018-04-01T20:52:09.694Z,5.50
2018-04-01T20:54:37.658Z,5.40
2018-04-01T20:57:05.628Z,5.20
2018-04-01T20:59:33.576Z,5.00
2018-04-01T21:02:01.531Z,5.00
2018-04-01T21:04:29.496Z,4.90
2018-04-01T21:06:57.461Z,5.00
2018-04-01T21:09:25.472Z,5.10
2018-04-01T21:11:53.424Z,5.10
2018-04-01T21:14:21.364Z,5.30
2018-04-01T21:16:49.322Z,5.20
2018-04-01T21:19:17.263Z,5.10
2018-04-01T21:21:45.239Z,4.90
2018-04-01T21:24:13.191Z,4.90
2018-04-01T21:26:41.157Z,5.50
2018-04-01T21:29:09.166Z,5.20
2018-04-01T21:31:37.107Z,5.50
2018-04-01T21:34:05.054Z,5.60
2018-04-01T21:36:33.015Z,5.50
2018-04-01T21:39:00.980Z,5.40
2018-04-01T21:41:28.955Z,5.50
2018-04-01T21:43:56.900Z,5.40
2018-04-01T21:46:24.847Z,5.20
2018-04-01T21:48:52.819Z,5.10
2018-04-01T21:51:20.819Z,5.10
2018-04-01T21:53:48.808Z,5.20
2018-04-01T21:56:16.750Z,5.20
2018-04-01T21:58:44.699Z,5.30
2018-04-01T22:01:12.680Z,5.30
2018-04-01T22:03:40.634Z,5.50
2018-04-01T22:06:08.576Z,5.50
2018-04-01T22:08:36.566Z,5.30
2018-04-01T22:11:04.511Z,5.20
2018-04-01T22:13:32.487Z,5.30
2018-04-01T22:16:00.478Z,5.40
2018-04-01T22:18:28.423Z,5.40
2018-04-01T22:20:56.370Z,5.40
2018-04-01T22:23:24.355Z,5.20
2018-04-01T22:25:52.310Z,5.40
2018-04-01T22:28:20.253Z,5.30
2018-04-01T22:30:48.216Z,5.40
2018-04-01T22:33:16.155Z,5.30
2018-04-01T22:35:44.097Z,5.40
2018-04-01T22:38:12.055Z,5.40
2018-04-01T22:40:39.994Z,5.50
2018-04-01T22:43:07.955Z,5.60
2018-04-01T22:45:35.943Z,5.50
2018-04-01T22:48:03.915Z,5.60
2018-04-01T22:50:31.864Z,5.60
2018-04-01T22:52:59.847Z,5.50
2018-04-01T22:55:27.786Z,5.30
2018-04-01T22:57:55.747Z,5.20
2018-04-01T23:00:23.690Z,5.20
2018-04-01T23:02:51.630Z,5.10
2018-04-01T23:05:19.611Z,5.10
2018-04-01T23:07:47.560Z,5.10
2018-04-01T23:10:15.500Z,5.20
2018-04-01T23:12:43.478Z,5.10
2018-04-01T23:15:11.420Z,5.20
2018-04-01T23:17:39.363Z,5.10
2018-04-01T23:20:07.327Z,5.00
2018-04-01T23:22:35.312Z,5.30
2018-04-01T23:25:03.332Z,5.50
2018-04-01T23:27:31.319Z,5.20
2018-04-01T23:29:59.341Z,5.40
2018-04-01T23:32:27.282Z,5.30
2018-04-01T23:34:55.251Z,5.30
2018-04-01T23:37:23.194Z,5.40
2018-04-01T23:39:51.146Z,5.20
2018-04-01T23:42:19.110Z,5.10
2018-04-01T23:44:47.055Z,4.80
2018-04-01T23:47:15.043Z,4.80
2018-04-01T23:49:42.988Z,5.00
2018-04-01T23:52:10.932Z,4.80
2018-04-01T23:54:39.178Z,4.70
2018-04-01T23:57:07.143Z,4.50
2018-04-01T23:59:35.128Z,4.40
